Buffalo, WY

7:12 PM MDT on October 25, 2014 (GMT -0600)
Esponda Ranch | Change Station
CLOSE
Current Station
Personal Weather Station
Location: Buffalo, WY
Elevation: 4665 ft
Nearby Weather Stations

Elev 4665 ft 44.32 °N, 106.67 °W | Updated 11 minutes ago

Clear
Clear
60.2 °F
Feels Like 60.2 °F
N
0.0
Wind Variable Wind from South
Gusts 3.0 mph

Today
High -- | Low -- °F
--% Chance of Precip.
Yesterday
High -- | Low -- °F
Precip. -- in
7:34 AM 6:06 PM
Waxing Crescent, 5% visible
Pressure 29.79 in
Visibility 10.0 miles
Clouds Clear
Dew Point 25 °F
Humidity 26%
Rainfall 0.00 in
Snow Depth Not available.
UV 0 out of 12
Pollen 1.70 out of 12
Air Quality Not available.
Flu Activity Sporadic
METAR KBYG 260053Z AUTO 21005KT 10SM CLR 19/M09 A2986 RMK AO2 SLP087 T01941089 $

More Conditions Fewer Conditions

Pressure 29.79 in
Visibility 10.0 miles
Clouds Clear
Dew Point 25 °F
Humidity 26%
Rainfall 0.00 in
Snow Depth Not available.
UV 0 out of 12
Pollen 1.70 out of 12
Air Quality Not available.
Flu Activity Sporadic
METAR KBYG 260053Z AUTO 21005KT 10SM CLR 19/M09 A2986 RMK AO2 SLP087 T01941089 $

More Conditions Fewer Conditions

10-Day Weather Forecast

Almanac

Astronomy

Oct. 25, 2014 Rise Set
Actual Time 7:34 AM MDT 6:06 PM MDT
Civil Twilight 7:04 AM MDT 6:36 PM MDT
Nautical Twilight 6:31 AM MDT 7:10 PM MDT
Astronomical Twilight 5:57 AM MDT 7:43 PM MDT
Moon 9:19 AM MDT (10/25) 7:28 PM MDT (10/25)
Length of Visible Light 11h 31m
Length of Day
10h 31m
Tomorrow will be 2m 50s shorter.
Waxing Crescent, 5% of the Moon is Illuminated
Today
Waxing Crescent
Oct 30
First Quarter
Nov 6
Full
Nov 14
Last Quarter
Nov 22
New

Today's Extremes

State Highs State Lows

Community

WunderPhotos

Upload Photos

1,765,058 photos uploaded!

Nearby

Snow Depth

Station Depth Elevation
Powder River Pass 0 in 9480 ft
Big Goose 0 in 7990 ft
Shell Creek 0 in 9580 ft
Bone Springs Divide 0 in 9350 ft
Burgess Junction 0 in 7880 ft

Earthquake Activity

City Distance Mag. Time & Date
No recent earthquake activity has been reported nearby.
Minimum magnitude displayed is 2.5.

Coastal Water Temperatures

Place Temperature
No Stations Reporting

Nearby Weather Stations